sensor_id;sensor_type;location;lat;lon;timestamp;temperature;humidity
56498;DHT22;51790;45.558;12.076;2022-10-31T00:08:41;14.50;86.30
56498;DHT22;51790;45.558;12.076;2022-10-31T00:14:42;13.90;87.90
56498;DHT22;51790;45.558;12.076;2022-10-31T00:20:43;14.20;86.60
56498;DHT22;51790;45.558;12.076;2022-10-31T00:26:44;14.20;86.20
56498;DHT22;51790;45.558;12.076;2022-10-31T00:32:45;14.00;87.30
56498;DHT22;51790;45.558;12.076;2022-10-31T00:38:47;14.30;86.20
56498;DHT22;51790;45.558;12.076;2022-10-31T00:44:48;14.30;85.80
56498;DHT22;51790;45.558;12.076;2022-10-31T00:56:51;14.20;85.20
56498;DHT22;51790;45.558;12.076;2022-10-31T01:02:52;13.60;86.60
56498;DHT22;51790;45.558;12.076;2022-10-31T01:14:55;14.10;85.20
56498;DHT22;51790;45.558;12.076;2022-10-31T01:20:57;13.50;87.50
56498;DHT22;51790;45.558;12.076;2022-10-31T01:26:59;13.40;87.40
56498;DHT22;51790;45.558;12.076;2022-10-31T01:33:00;13.20;88.70
56498;DHT22;51790;45.558;12.076;2022-10-31T01:45:03;13.80;85.20
56498;DHT22;51790;45.558;12.076;2022-10-31T02:21:19;13.70;86.30
56498;DHT22;51790;45.558;12.076;2022-10-31T02:33:51;12.70;89.30
56498;DHT22;51790;45.558;12.076;2022-10-31T02:39:56;12.40;89.10
56498;DHT22;51790;45.558;12.076;2022-10-31T02:52:30;13.30;85.40
56498;DHT22;51790;45.558;12.076;2022-10-31T02:58:37;13.30;85.40
56498;DHT22;51790;45.558;12.076;2022-10-31T03:10:53;12.60;87.50
56498;DHT22;51790;45.558;12.076;2022-10-31T03:22:57;13.10;86.00
56498;DHT22;51790;45.558;12.076;2022-10-31T03:29:01;12.70;88.50
56498;DHT22;51790;45.558;12.076;2022-10-31T03:35:04;12.20;89.20
56498;DHT22;51790;45.558;12.076;2022-10-31T03:47:08;13.20;85.80
56498;DHT22;51790;45.558;12.076;2022-10-31T04:05:13;13.00;86.50
56498;DHT22;51790;45.558;12.076;2022-10-31T04:11:19;12.80;86.20
56498;DHT22;51790;45.558;12.076;2022-10-31T04:17:29;13.00;86.90
56498;DHT22;51790;45.558;12.076;2022-10-31T04:23:33;13.00;86.90
56498;DHT22;51790;45.558;12.076;2022-10-31T04:29:42;12.70;87.60
56498;DHT22;51790;45.558;12.076;2022-10-31T04:35:44;12.40;87.70
56498;DHT22;51790;45.558;12.076;2022-10-31T04:47:49;12.80;85.80
56498;DHT22;51790;45.558;12.076;2022-10-31T05:18:43;12.60;85.60
56498;DHT22;51790;45.558;12.076;2022-10-31T07:09:16;13.60;84.40
56498;DHT22;51790;45.558;12.076;2022-10-31T07:15:17;13.50;85.90
56498;DHT22;51790;45.558;12.076;2022-10-31T07:21:19;13.00;87.60
56498;DHT22;51790;45.558;12.076;2022-10-31T07:27:21;13.20;88.40
56498;DHT22;51790;45.558;12.076;2022-10-31T07:33:23;13.30;88.00
56498;DHT22;51790;45.558;12.076;2022-10-31T07:39:45;13.60;88.00
56498;DHT22;51790;45.558;12.076;2022-10-31T07:45:53;13.80;88.10
56498;DHT22;51790;45.558;12.076;2022-10-31T07:52:13;14.00;87.80
56498;DHT22;51790;45.558;12.076;2022-10-31T07:58:33;14.30;87.20
56498;DHT22;51790;45.558;12.076;2022-10-31T08:04:34;14.80;86.30
56498;DHT22;51790;45.558;12.076;2022-10-31T08:10:57;15.00;85.30
56498;DHT22;51790;45.558;12.076;2022-10-31T08:16:58;15.20;85.20
56498;DHT22;51790;45.558;12.076;2022-10-31T08:23:08;15.40;84.70
56498;DHT22;51790;45.558;12.076;2022-10-31T08:29:10;15.60;84.20
56498;DHT22;51790;45.558;12.076;2022-10-31T08:35:13;15.80;84.00
56498;DHT22;51790;45.558;12.076;2022-10-31T08:41:53;16.00;84.00
56498;DHT22;51790;45.558;12.076;2022-10-31T08:48:02;16.30;83.40
56498;DHT22;51790;45.558;12.076;2022-10-31T08:54:07;16.40;82.70
56498;DHT22;51790;45.558;12.076;2022-10-31T09:00:08;16.60;82.90
56498;DHT22;51790;45.558;12.076;2022-10-31T09:06:26;16.70;82.80
56498;DHT22;51790;45.558;12.076;2022-10-31T09:12:28;17.00;81.70
56498;DHT22;51790;45.558;12.076;2022-10-31T09:18:55;17.20;80.30
56498;DHT22;51790;45.558;12.076;2022-10-31T09:24:57;17.40;80.70
56498;DHT22;51790;45.558;12.076;2022-10-31T09:31:00;17.70;80.00
56498;DHT22;51790;45.558;12.076;2022-10-31T09:37:39;17.70;79.40
56498;DHT22;51790;45.558;12.076;2022-10-31T09:55:44;17.90;78.70
56498;DHT22;51790;45.558;12.076;2022-10-31T10:01:51;18.00;78.00
56498;DHT22;51790;45.558;12.076;2022-10-31T10:08:00;18.20;77.70
56498;DHT22;51790;45.558;12.076;2022-10-31T10:27:19;18.90;75.50
56498;DHT22;51790;45.558;12.076;2022-10-31T10:33:33;19.00;74.40
56498;DHT22;51790;45.558;12.076;2022-10-31T10:39:40;18.90;74.00
56498;DHT22;51790;45.558;12.076;2022-10-31T10:45:42;19.00;73.40
56498;DHT22;51790;45.558;12.076;2022-10-31T10:58:12;19.60;71.70
56498;DHT22;51790;45.558;12.076;2022-10-31T11:10:21;19.60;72.00
56498;DHT22;51790;45.558;12.076;2022-10-31T11:22:27;20.10;70.50
56498;DHT22;51790;45.558;12.076;2022-10-31T11:28:29;20.30;70.30
56498;DHT22;51790;45.558;12.076;2022-10-31T11:34:32;20.30;69.20
56498;DHT22;51790;45.558;12.076;2022-10-31T11:40:34;20.40;69.10
56498;DHT22;51790;45.558;12.076;2022-10-31T11:46:39;20.50;69.00
56498;DHT22;51790;45.558;12.076;2022-10-31T11:52:41;20.50;68.10
56498;DHT22;51790;45.558;12.076;2022-10-31T11:58:42;20.60;67.60
56498;DHT22;51790;45.558;12.076;2022-10-31T12:04:44;20.80;66.90
56498;DHT22;51790;45.558;12.076;2022-10-31T12:41:51;21.30;64.70
56498;DHT22;51790;45.558;12.076;2022-10-31T13:00:12;21.40;66.10
56498;DHT22;51790;45.558;12.076;2022-10-31T13:06:17;21.50;65.70
56498;DHT22;51790;45.558;12.076;2022-10-31T13:12:20;21.70;62.40
56498;DHT22;51790;45.558;12.076;2022-10-31T13:18:27;21.90;63.90
56498;DHT22;51790;45.558;12.076;2022-10-31T13:30:42;21.60;64.50
56498;DHT22;51790;45.558;12.076;2022-10-31T13:55:45;21.60;63.30
56498;DHT22;51790;45.558;12.076;2022-10-31T14:01:56;21.70;63.20
56498;DHT22;51790;45.558;12.076;2022-10-31T14:08:00;21.00;66.20
56498;DHT22;51790;45.558;12.076;2022-10-31T14:14:02;21.30;64.00
56498;DHT22;51790;45.558;12.076;2022-10-31T14:39:24;20.70;66.70
56498;DHT22;51790;45.558;12.076;2022-10-31T14:51:47;21.20;62.10
56498;DHT22;51790;45.558;12.076;2022-10-31T14:57:51;21.20;63.60
56498;DHT22;51790;45.558;12.076;2022-10-31T15:04:16;21.00;63.50
56498;DHT22;51790;45.558;12.076;2022-10-31T15:10:20;20.90;62.10
56498;DHT22;51790;45.558;12.076;2022-10-31T15:16:23;20.70;63.00
56498;DHT22;51790;45.558;12.076;2022-10-31T15:22:25;20.40;65.90
56498;DHT22;51790;45.558;12.076;2022-10-31T15:28:27;20.10;65.90
56498;DHT22;51790;45.558;12.076;2022-10-31T15:34:37;20.10;67.30
56498;DHT22;51790;45.558;12.076;2022-10-31T15:40:39;20.00;68.60
56498;DHT22;51790;45.558;12.076;2022-10-31T15:54:23;19.50;69.80
56498;DHT22;51790;45.558;12.076;2022-10-31T16:00:32;19.10;71.80
56498;DHT22;51790;45.558;12.076;2022-10-31T16:06:34;18.90;73.10
56498;DHT22;51790;45.558;12.076;2022-10-31T16:12:36;18.60;74.20
56498;DHT22;51790;45.558;12.076;2022-10-31T16:18:38;18.50;74.60
56498;DHT22;51790;45.558;12.076;2022-10-31T16:24:45;18.30;75.40
56498;DHT22;51790;45.558;12.076;2022-10-31T16:30:48;18.20;76.10
56498;DHT22;51790;45.558;12.076;2022-10-31T16:36:50;18.00;77.40
56498;DHT22;51790;45.558;12.076;2022-10-31T16:42:51;17.70;78.20
56498;DHT22;51790;45.558;12.076;2022-10-31T16:48:53;17.50;79.30
56498;DHT22;51790;45.558;12.076;2022-10-31T16:54:54;17.50;79.80
56498;DHT22;51790;45.558;12.076;2022-10-31T17:00:56;17.30;80.20
56498;DHT22;51790;45.558;12.076;2022-10-31T17:06:58;17.20;81.00
56498;DHT22;51790;45.558;12.076;2022-10-31T17:12:59;17.20;82.00
56498;DHT22;51790;45.558;12.076;2022-10-31T17:19:03;17.20;82.70
56498;DHT22;51790;45.558;12.076;2022-10-31T17:25:04;17.00;83.20
56498;DHT22;51790;45.558;12.076;2022-10-31T17:31:06;16.90;83.50
56498;DHT22;51790;45.558;12.076;2022-10-31T17:37:08;16.70;84.20
56498;DHT22;51790;45.558;12.076;2022-10-31T17:43:10;16.70;84.50
56498;DHT22;51790;45.558;12.076;2022-10-31T17:49:11;16.70;83.70
56498;DHT22;51790;45.558;12.076;2022-10-31T17:55:12;16.60;84.20
56498;DHT22;51790;45.558;12.076;2022-10-31T18:01:14;16.30;84.50
56498;DHT22;51790;45.558;12.076;2022-10-31T18:07:16;16.10;85.50
56498;DHT22;51790;45.558;12.076;2022-10-31T18:13:19;16.10;85.80
56498;DHT22;51790;45.558;12.076;2022-10-31T18:19:21;16.00;85.90
56498;DHT22;51790;45.558;12.076;2022-10-31T18:25:22;15.90;85.60
56498;DHT22;51790;45.558;12.076;2022-10-31T18:31:23;15.80;86.00
56498;DHT22;51790;45.558;12.076;2022-10-31T18:37:25;15.80;85.90
56498;DHT22;51790;45.558;12.076;2022-10-31T18:43:26;15.70;86.10
56498;DHT22;51790;45.558;12.076;2022-10-31T18:49:27;15.70;86.20
56498;DHT22;51790;45.558;12.076;2022-10-31T18:55:32;15.60;87.10
56498;DHT22;51790;45.558;12.076;2022-10-31T19:01:33;15.50;87.70
56498;DHT22;51790;45.558;12.076;2022-10-31T19:07:34;15.30;88.30
56498;DHT22;51790;45.558;12.076;2022-10-31T19:13:36;15.30;88.00
56498;DHT22;51790;45.558;12.076;2022-10-31T19:19:37;15.30;87.60
56498;DHT22;51790;45.558;12.076;2022-10-31T19:25:39;15.20;87.30
56498;DHT22;51790;45.558;12.076;2022-10-31T19:31:40;15.10;87.40
56498;DHT22;51790;45.558;12.076;2022-10-31T19:37:42;15.00;88.60
56498;DHT22;51790;45.558;12.076;2022-10-31T19:43:43;14.80;88.50
56498;DHT22;51790;45.558;12.076;2022-10-31T19:49:45;14.70;89.30
56498;DHT22;51790;45.558;12.076;2022-10-31T19:55:46;14.60;89.50
56498;DHT22;51790;45.558;12.076;2022-10-31T20:01:47;14.50;89.60
56498;DHT22;51790;45.558;12.076;2022-10-31T20:07:49;14.50;90.00
56498;DHT22;51790;45.558;12.076;2022-10-31T20:13:50;14.60;89.90
56498;DHT22;51790;45.558;12.076;2022-10-31T20:19:51;14.50;89.80
56498;DHT22;51790;45.558;12.076;2022-10-31T20:25:53;14.40;89.60
56498;DHT22;51790;45.558;12.076;2022-10-31T20:31:54;14.50;89.20
56498;DHT22;51790;45.558;12.076;2022-10-31T20:37:57;14.60;89.20
56498;DHT22;51790;45.558;12.076;2022-10-31T20:43:58;14.50;89.00
56498;DHT22;51790;45.558;12.076;2022-10-31T20:50:00;14.50;88.70
56498;DHT22;51790;45.558;12.076;2022-10-31T20:56:08;14.40;88.60
56498;DHT22;51790;45.558;12.076;2022-10-31T21:02:10;14.30;89.30
56498;DHT22;51790;45.558;12.076;2022-10-31T21:08:12;14.20;90.50
56498;DHT22;51790;45.558;12.076;2022-10-31T21:14:13;14.20;89.40
56498;DHT22;51790;45.558;12.076;2022-10-31T21:20:14;14.20;88.90
56498;DHT22;51790;45.558;12.076;2022-10-31T21:26:17;14.20;89.00
56498;DHT22;51790;45.558;12.076;2022-10-31T21:32:20;14.10;88.90
56498;DHT22;51790;45.558;12.076;2022-10-31T21:38:22;13.90;89.70
56498;DHT22;51790;45.558;12.076;2022-10-31T21:44:24;13.80;88.70
56498;DHT22;51790;45.558;12.076;2022-10-31T21:50:25;13.80;88.90
56498;DHT22;51790;45.558;12.076;2022-10-31T21:56:26;14.00;88.70
56498;DHT22;51790;45.558;12.076;2022-10-31T22:02:28;13.80;89.50
56498;DHT22;51790;45.558;12.076;2022-10-31T22:08:29;13.80;88.60
56498;DHT22;51790;45.558;12.076;2022-10-31T22:14:31;13.90;88.30
56498;DHT22;51790;45.558;12.076;2022-10-31T22:20:32;13.80;89.10
56498;DHT22;51790;45.558;12.076;2022-10-31T22:26:33;13.70;89.20
56498;DHT22;51790;45.558;12.076;2022-10-31T22:32:35;13.60;88.90
56498;DHT22;51790;45.558;12.076;2022-10-31T22:38:37;13.60;89.50
56498;DHT22;51790;45.558;12.076;2022-10-31T22:44:40;13.40;89.40
56498;DHT22;51790;45.558;12.076;2022-10-31T22:50:41;13.20;89.00
56498;DHT22;51790;45.558;12.076;2022-10-31T22:56:42;13.00;89.50
56498;DHT22;51790;45.558;12.076;2022-10-31T23:02:44;12.90;89.90
56498;DHT22;51790;45.558;12.076;2022-10-31T23:08:45;13.20;89.00
56498;DHT22;51790;45.558;12.076;2022-10-31T23:14:47;13.20;89.10
56498;DHT22;51790;45.558;12.076;2022-10-31T23:20:54;13.20;89.90
56498;DHT22;51790;45.558;12.076;2022-10-31T23:26:56;13.20;90.30
56498;DHT22;51790;45.558;12.076;2022-10-31T23:33:09;13.20;89.00
56498;DHT22;51790;45.558;12.076;2022-10-31T23:39:11;13.20;88.90
56498;DHT22;51790;45.558;12.076;2022-10-31T23:45:12;13.00;89.00
56498;DHT22;51790;45.558;12.076;2022-10-31T23:51:14;12.90;89.60
56498;DHT22;51790;45.558;12.076;2022-10-31T23:57:15;12.80;90.00
